Time;durP1;ratioP1;P1;durP2;ratioP2;P2;SDS_P1;SDS_P2;PMS_P1;PMS_P2;Temp;Humidity;BMP_temperature;BMP_pressure;BME280_temperature;BME280_humidity;BME280_pressure;Samples;Min_cycle;Max_cycle;Signal;HPM_P1;HPM_P2
2022/12/02 00:01:51;;;;;;;26.77;12.20;;;5.40;99.90;;;;;;5049297;28;20378;-61
2022/12/02 00:04:24;;;;;;;30.15;12.50;;;5.30;99.90;;;;;;5048612;28;20427;-59
2022/12/02 00:06:52;;;;;;;27.67;11.90;;;5.40;99.90;;;;;;5049332;28;20386;-60
2022/12/02 00:09:33;;;;;;;30.05;12.98;;;6.90;99.90;;;;;;5048442;28;20485;-59
2022/12/02 00:12:20;;;;;;;28.70;11.95;;;6.50;99.90;;;;;;5048868;28;20925;-60
2022/12/02 00:14:48;;;;;;;31.58;12.50;;;5.50;17.10;;;;;;5048666;28;20412;-59
2022/12/02 00:17:14;;;;;;;28.20;12.98;;;5.40;99.90;;;;;;5052236;28;20421;-59
2022/12/02 00:19:39;;;;;;;29.33;12.55;;;5.70;99.90;;;;;;5052872;28;20764;-59
2022/12/02 00:22:05;;;;;;;31.07;13.70;;;5.90;99.90;;;;;;5052444;28;20428;-65
2022/12/02 00:24:30;;;;;;;28.48;12.40;;;5.40;99.90;;;;;;5052269;28;20382;-59
2022/12/02 00:26:56;;;;;;;28.67;12.47;;;5.50;99.90;;;;;;5052857;28;20831;-59
2022/12/02 00:29:21;;;;;;;28.45;12.15;;;5.50;99.90;;;;;;5051787;28;20404;-59
2022/12/02 00:31:47;;;;;;;26.47;11.97;;;6.60;99.90;;;;;;5052796;28;20386;-59
2022/12/02 00:34:13;;;;;;;26.58;11.90;;;5.50;99.90;;;;;;5051766;28;20810;-59
2022/12/02 00:36:38;;;;;;;29.67;11.77;;;6.50;33.40;;;;;;5052666;28;20389;-58
2022/12/02 00:39:04;;;;;;;27.93;10.70;;;7.00;13.50;;;;;;5052657;28;20409;-65
2022/12/02 00:41:29;;;;;;;27.45;12.32;;;5.50;50.20;;;;;;5034117;28;20924;-58
2022/12/02 00:46:39;;;;;;;23.08;10.75;;;5.70;1.00;;;;;;5052194;28;20419;-59
2022/12/02 00:49:12;;;;;;;28.35;12.50;;;5.70;1.00;;;;;;5052478;28;20389;-65
2022/12/02 00:51:39;;;;;;;27.15;11.60;;;5.70;1.00;;;;;;5052400;28;20377;-59
2022/12/02 00:54:05;;;;;;;32.45;12.52;;;6.90;1.00;;;;;;5052090;28;20439;-64
2022/12/02 00:56:31;;;;;;;27.52;11.75;;;5.10;1.00;;;;;;5052052;28;20384;-60
2022/12/02 00:58:57;;;;;;;26.90;10.82;;;5.70;1.00;;;;;;5052132;28;20402;-58
2022/12/02 01:01:23;;;;;;;25.97;10.60;;;5.60;1.00;;;;;;5051450;28;20482;-60
2022/12/02 01:03:49;;;;;;;23.10;9.68;;;5.60;1.00;;;;;;5052005;28;20866;-59
2022/12/02 01:06:15;;;;;;;27.20;11.00;;;5.70;1.00;;;;;;5051344;28;20386;-58
2022/12/02 01:08:40;;;;;;;24.25;11.48;;;5.70;1.00;;;;;;5034159;28;20409;-58
2022/12/02 01:11:06;;;;;;;22.90;10.63;;;5.70;1.00;;;;;;5051844;28;20393;-65
2022/12/02 01:13:32;;;;;;;26.55;10.73;;;5.70;1.00;;;;;;5051875;28;20389;-61
2022/12/02 01:15:57;;;;;;;28.07;12.10;;;5.80;1.00;;;;;;5052043;28;20424;-61
2022/12/02 01:18:23;;;;;;;25.40;10.40;;;7.10;70.60;;;;;;5051120;28;20472;-61
2022/12/02 01:20:49;;;;;;;25.33;11.65;;;6.90;99.90;;;;;;5052045;28;20393;-61
2022/12/02 01:23:14;;;;;;;22.00;10.90;;;5.80;1.00;;;;;;5051397;28;20384;-61
2022/12/02 01:25:40;;;;;;;26.75;11.05;;;5.80;99.90;;;;;;5051779;28;20708;-61
2022/12/02 01:28:06;;;;;;;26.60;10.77;;;5.70;99.90;;;;;;5049988;28;20390;-67
2022/12/02 01:30:32;;;;;;;31.63;11.73;;;6.70;99.90;;;;;;5051270;28;20385;-61
2022/12/02 01:32:58;;;;;;;27.07;11.90;;;5.70;99.90;;;;;;5051224;28;20388;-62
2022/12/02 01:35:23;;;;;;;23.85;10.82;;;5.70;99.90;;;;;;5050743;28;20603;-61
2022/12/02 01:37:49;;;;;;;23.87;10.93;;;7.20;99.90;;;;;;5051526;28;20378;-61
2022/12/02 01:40:17;;;;;;;27.08;10.77;;;6.40;1.00;;;;;;5050720;28;20439;-61
2022/12/02 01:42:43;;;;;;;26.50;11.33;;;5.80;1.00;;;;;;5051382;28;20385;-61
2022/12/02 01:45:10;;;;;;;23.75;10.20;;;7.00;99.90;;;;;;5050697;28;20918;-65
2022/12/02 01:47:37;;;;;;;28.33;12.40;;;7.30;99.90;;;;;;5051434;28;20423;-61
2022/12/02 01:50:05;;;;;;;23.30;11.25;;;5.70;99.90;;;;;;5051396;28;20385;-61
2022/12/02 01:52:31;;;;;;;26.58;11.88;;;5.70;99.90;;;;;;5050663;28;20386;-61
2022/12/02 01:54:56;;;;;;;28.73;11.27;;;7.10;1.00;;;;;;5051223;28;20394;-61
2022/12/02 01:57:26;;;;;;;26.67;10.63;;;5.80;1.00;;;;;;5058964;28;20479;-61
2022/12/02 01:59:52;;;;;;;26.27;11.50;;;5.80;99.90;;;;;;5052233;28;20430;-62
2022/12/02 02:02:26;;;;;;;29.13;11.97;;;5.80;99.90;;;;;;5069933;28;20477;-61
2022/12/02 02:04:55;;;;;;;32.05;12.20;;;5.80;99.90;;;;;;5070315;28;20746;-61
2022/12/02 02:07:20;;;;;;;27.25;12.13;;;7.10;1.00;;;;;;5070143;28;20384;-61
2022/12/02 02:09:46;;;;;;;28.33;10.60;;;5.70;99.90;;;;;;5070793;28;20739;-61
2022/12/02 02:12:11;;;;;;;29.80;11.35;;;5.80;1.00;;;;;;5069947;28;20718;-61
2022/12/02 02:14:37;;;;;;;24.60;11.60;;;5.80;1.00;;;;;;5070423;28;20391;-61
2022/12/02 02:17:03;;;;;;;26.23;11.23;;;5.80;1.00;;;;;;5062119;28;20489;-61
2022/12/02 02:19:28;;;;;;;25.13;11.00;;;7.10;99.90;;;;;;5049784;28;20412;-61
2022/12/02 02:21:56;;;;;;;25.35;10.45;;;5.70;1.00;;;;;;5050556;28;20398;-60
2022/12/02 02:24:23;;;;;;;25.05;11.25;;;7.10;1.00;;;;;;5049985;28;20381;-61
2022/12/02 02:26:48;;;;;;;24.23;10.95;;;5.60;99.90;;;;;;5050495;28;20384;-61
2022/12/02 02:29:14;;;;;;;29.70;12.23;;;7.20;99.90;;;;;;5049570;28;20766;-61
2022/12/02 02:31:40;;;;;;;26.30;11.20;;;6.90;99.90;;;;;;5050498;28;20389;-61
2022/12/02 02:34:06;;;;;;;22.23;10.88;;;5.80;1.00;;;;;;5050274;28;20410;-67
2022/12/02 02:36:32;;;;;;;27.38;11.43;;;5.80;1.00;;;;;;5050080;28;20388;-61
2022/12/02 02:38:58;;;;;;;23.20;10.20;;;7.20;99.90;;;;;;5049949;28;20449;-61
2022/12/02 02:41:24;;;;;;;26.93;11.50;;;5.80;1.00;;;;;;5049547;28;20408;-61
2022/12/02 02:43:50;;;;;;;26.48;11.45;;;5.90;99.90;;;;;;5050172;28;20413;-61
2022/12/02 02:46:16;;;;;;;24.30;10.07;;;5.90;44.00;;;;;;5049325;28;20436;-61
2022/12/02 02:48:43;;;;;;;26.00;9.73;;;5.90;1.00;;;;;;5049938;28;20490;-61
2022/12/02 02:51:11;;;;;;;27.92;10.30;;;5.90;1.00;;;;;;5049452;28;20460;-67
2022/12/02 02:53:36;;;;;;;22.70;10.07;;;5.70;1.00;;;;;;5050300;28;20378;-61
2022/12/02 02:56:02;;;;;;;30.87;11.80;;;7.20;34.70;;;;;;5050063;28;20396;-61
2022/12/02 02:58:28;;;;;;;28.55;11.45;;;5.60;99.90;;;;;;5049052;28;20405;-61
2022/12/02 03:00:58;;;;;;;20.33;10.00;;;5.50;1.00;;;;;;5049782;28;20439;-61
2022/12/02 03:03:28;;;;;;;23.13;10.80;;;5.60;99.90;;;;;;5047813;28;20856;-61
2022/12/02 03:05:55;;;;;;;25.80;10.38;;;5.50;99.90;;;;;;5049995;28;20395;-61
2022/12/02 03:08:22;;;;;;;27.85;11.68;;;5.60;99.90;;;;;;5049080;28;20803;-61
2022/12/02 03:10:50;;;;;;;25.70;10.38;;;6.20;99.90;;;;;;5049827;28;20859;-61
2022/12/02 03:13:15;;;;;;;26.73;10.65;;;5.50;22.20;;;;;;5049088;28;20762;-61
2022/12/02 03:15:41;;;;;;;26.10;10.10;;;5.50;99.90;;;;;;5050127;28;20519;-61
2022/12/02 03:18:07;;;;;;;25.60;11.10;;;5.50;99.90;;;;;;5049709;28;20427;-67
2022/12/02 03:20:33;;;;;;;25.75;11.52;;;5.60;1.00;;;;;;5048864;28;20389;-63
2022/12/02 03:23:00;;;;;;;24.77;11.00;;;6.20;1.00;;;;;;5050718;28;20403;-61
2022/12/02 03:25:26;;;;;;;27.27;11.48;;;5.80;1.00;;;;;;5058893;28;20739;-61
2022/12/02 03:27:52;;;;;;;28.95;11.82;;;7.20;1.00;;;;;;5050358;28;20482;-61
2022/12/02 03:30:17;;;;;;;25.10;11.55;;;5.80;1.00;;;;;;5065196;28;20514;-61
2022/12/02 03:32:43;;;;;;;25.83;11.70;;;5.60;1.00;;;;;;5049486;28;20468;-61
2022/12/02 03:35:09;;;;;;;27.58;11.70;;;5.80;1.00;;;;;;5057547;28;21246;-67
2022/12/02 03:37:35;;;;;;;29.70;12.00;;;5.60;1.00;;;;;;5069371;28;20384;-62
2022/12/02 03:40:01;;;;;;;26.67;10.80;;;5.60;1.00;;;;;;5069522;28;20506;-61
2022/12/02 03:42:26;;;;;;;27.25;11.05;;;6.30;1.00;;;;;;5068651;28;20747;-61
2022/12/02 03:44:52;;;;;;;25.20;11.45;;;6.60;31.80;;;;;;5065702;28;20839;-61
2022/12/02 03:47:18;;;;;;;24.58;10.32;;;5.60;1.00;;;;;;5048661;28;20382;-61
2022/12/02 03:49:43;;;;;;;25.20;10.60;;;5.60;1.00;;;;;;5049116;28;20789;-63
2022/12/02 03:52:10;;;;;;;24.17;11.02;;;5.60;1.00;;;;;;5053310;28;20377;-67
2022/12/02 03:54:37;;;;;;;23.95;10.52;;;6.30;1.00;;;;;;5053406;28;20381;-61
2022/12/02 03:57:06;;;;;;;27.85;11.00;;;5.70;1.00;;;;;;5053609;28;20886;-61
2022/12/02 03:59:32;;;;;;;26.30;11.15;;;6.90;1.00;;;;;;5052554;28;20400;-61
2022/12/02 04:01:58;;;;;;;26.00;10.25;;;6.80;1.00;;;;;;5054973;28;20486;-60
2022/12/02 04:04:24;;;;;;;27.75;10.80;;;5.60;1.00;;;;;;5058201;28;20858;-62
2022/12/02 04:06:49;;;;;;;24.53;10.20;;;5.70;1.00;;;;;;5053658;28;20389;-64
2022/12/02 04:09:15;;;;;;;24.50;9.88;;;5.70;1.00;;;;;;5052079;28;20408;-58
2022/12/02 04:11:40;;;;;;;23.03;9.70;;;7.30;99.90;;;;;;5035414;28;20485;-59
2022/12/02 04:14:06;;;;;;;26.77;10.38;;;5.60;99.90;;;;;;5052791;28;20393;-59
2022/12/02 04:16:31;;;;;;;25.20;10.17;;;6.40;1.00;;;;;;5066123;28;20380;-59
2022/12/02 04:18:57;;;;;;;27.65;10.70;;;7.00;1.00;;;;;;5053980;28;20808;-58
2022/12/02 04:21:25;;;;;;;24.83;10.77;;;6.30;99.90;;;;;;5057795;28;20472;-59
2022/12/02 04:23:52;;;;;;;25.43;9.57;;;7.40;99.90;;;;;;5052977;28;20389;-59
2022/12/02 04:26:18;;;;;;;26.63;11.00;;;6.50;99.90;;;;;;5052063;28;20957;-59
2022/12/02 04:28:43;;;;;;;24.50;10.13;;;6.80;86.40;;;;;;5052780;28;20390;-59
2022/12/02 04:31:09;;;;;;;24.17;11.20;;;5.50;1.00;;;;;;5059728;28;20788;-65
2022/12/02 04:33:35;;;;;;;23.40;11.25;;;5.60;99.90;;;;;;5072647;28;20391;-58
2022/12/02 04:36:01;;;;;;;27.75;11.88;;;5.80;99.90;;;;;;5072940;28;20755;-58
2022/12/02 04:38:26;;;;;;;26.23;11.30;;;5.80;99.90;;;;;;5071925;28;20412;-58
2022/12/02 04:40:52;;;;;;;27.45;11.30;;;5.50;1.00;;;;;;5070951;28;20807;-58
2022/12/02 04:43:17;;;;;;;24.97;11.33;;;5.50;1.00;;;;;;5071906;28;20390;-59
2022/12/02 04:45:43;;;;;;;23.05;10.98;;;5.50;1.00;;;;;;5072813;28;20388;-58
2022/12/02 04:48:08;;;;;;;28.03;11.43;;;5.50;1.00;;;;;;5072188;28;20384;-64
2022/12/02 04:50:34;;;;;;;24.55;10.48;;;6.50;1.00;;;;;;5053994;28;20486;-58
2022/12/02 04:53:00;;;;;;;25.00;10.63;;;5.50;1.00;;;;;;5072418;28;20390;-61
2022/12/02 04:55:26;;;;;;;30.30;11.70;;;5.60;1.00;;;;;;5053461;28;20396;-61
2022/12/02 04:57:52;;;;;;;27.88;11.63;;;5.60;1.00;;;;;;5072468;28;20425;-61
2022/12/02 05:00:18;;;;;;;28.60;11.98;;;6.50;99.90;;;;;;5053395;28;20522;-61
2022/12/02 05:02:44;;;;;;;31.73;12.75;;;5.60;1.00;;;;;;5071591;28;20380;-62
2022/12/02 05:05:10;;;;;;;27.97;12.47;;;6.90;99.90;;;;;;5072182;28;20403;-65
2022/12/02 05:07:35;;;;;;;30.92;11.95;;;5.60;1.00;;;;;;5071758;28;20411;-60
2022/12/02 05:10:01;;;;;;;27.50;11.77;;;7.20;46.70;;;;;;5071942;28;20427;-61
2022/12/02 05:12:27;;;;;;;26.05;10.35;;;7.10;69.10;;;;;;5068965;28;20380;-61
2022/12/02 05:14:53;;;;;;;26.17;11.20;;;5.70;58.40;;;;;;5051617;28;20385;-61
2022/12/02 05:17:18;;;;;;;29.13;10.90;;;5.70;38.20;;;;;;5068295;28;20387;-61
2022/12/02 05:19:44;;;;;;;28.42;12.90;;;5.70;99.90;;;;;;5071928;28;20506;-61
2022/12/02 05:22:10;;;;;;;23.88;10.35;;;5.70;99.90;;;;;;5071017;28;20391;-67
2022/12/02 05:24:36;;;;;;;29.97;11.77;;;5.80;98.20;;;;;;5053392;28;20521;-61
2022/12/02 05:27:01;;;;;;;27.33;11.45;;;5.80;1.00;;;;;;5052592;28;20865;-61
2022/12/02 05:29:27;;;;;;;29.70;12.60;;;5.80;1.00;;;;;;5050989;28;21108;-61
2022/12/02 05:31:53;;;;;;;27.83;11.68;;;6.20;1.00;;;;;;5051943;28;20384;-61
2022/12/02 05:34:18;;;;;;;30.60;12.37;;;5.60;17.80;;;;;;5050371;28;20765;-61
2022/12/02 05:36:44;;;;;;;23.00;9.73;;;5.70;99.90;;;;;;5051609;28;20381;-61
2022/12/02 05:39:09;;;;;;;25.80;11.33;;;5.70;27.00;;;;;;5058720;28;20900;-65
2022/12/02 05:41:37;;;;;;;25.90;10.63;;;5.60;1.00;;;;;;5070666;28;20390;-59
2022/12/02 05:44:18;;;;;;;26.48;11.15;;;5.60;99.90;;;;;;5071791;28;20383;-59
2022/12/02 05:46:44;;;;;;;23.20;10.57;;;5.60;99.90;;;;;;5067182;28;20416;-59
2022/12/02 05:49:17;;;;;;;24.40;11.20;;;7.20;99.90;;;;;;5047048;28;20941;-64
2022/12/02 05:51:43;;;;;;;27.80;11.82;;;5.60;99.90;;;;;;5060506;28;20408;-59
2022/12/02 05:54:16;;;;;;;27.48;12.73;;;5.70;30.40;;;;;;5055446;28;20398;-59
2022/12/02 05:56:42;;;;;;;25.80;11.57;;;7.00;1.00;;;;;;5051114;28;20412;-60
2022/12/02 05:59:14;;;;;;;27.98;12.32;;;5.80;1.00;;;;;;5051253;28;20409;-61
2022/12/02 06:01:40;;;;;;;25.92;12.05;;;5.70;1.00;;;;;;5062058;28;20411;-63
2022/12/02 06:04:13;;;;;;;24.27;11.55;;;5.80;1.00;;;;;;5068521;28;20398;-61
2022/12/02 06:06:39;;;;;;;27.48;10.82;;;5.70;1.00;;;;;;5061896;28;20891;-62
2022/12/02 06:09:12;;;;;;;27.33;12.27;;;6.10;5.40;;;;;;5053418;28;20584;-59
2022/12/02 06:11:38;;;;;;;23.58;10.80;;;5.50;1.00;;;;;;5070228;28;20394;-58
2022/12/02 06:14:14;;;;;;;29.13;11.20;;;5.50;1.00;;;;;;5053531;28;20758;-63
2022/12/02 06:16:47;;;;;;;23.42;10.30;;;5.50;1.00;;;;;;5068735;28;20848;-65
2022/12/02 06:19:27;;;;;;;30.55;10.88;;;5.50;1.00;;;;;;5070264;28;20420;-68
2022/12/02 06:21:55;;;;;;;27.77;11.98;;;5.60;1.00;;;;;;5070777;28;20380;-61
2022/12/02 06:24:29;;;;;;;26.02;10.95;;;5.70;1.00;;;;;;5069851;28;20376;-61
2022/12/02 06:26:59;;;;;;;23.80;10.95;;;5.70;1.00;;;;;;5070564;28;20770;-60
2022/12/02 06:29:27;;;;;;;27.08;10.88;;;6.70;1.00;;;;;;5066068;28;20808;-58
2022/12/02 06:31:55;;;;;;;24.95;10.30;;;5.70;99.90;;;;;;5052829;28;20730;-61
2022/12/02 06:34:32;;;;;;;26.90;11.10;;;5.60;1.00;;;;;;5070025;28;20434;-61
2022/12/02 06:37:08;;;;;;;28.63;12.10;;;5.60;1.00;;;;;;5067943;28;20411;-58
2022/12/02 06:39:34;;;;;;;32.15;12.52;;;5.60;1.00;;;;;;5069103;28;20966;-70
2022/12/02 06:42:04;;;;;;;23.67;11.27;;;5.80;1.00;;;;;;5070442;28;20466;-61
2022/12/02 06:47:32;;;;;;;29.33;12.20;;;7.40;99.90;;;;;;5067203;28;20401;-66
2022/12/02 06:50:04;;;;;;;28.92;11.70;;;5.70;1.00;;;;;;5064946;28;20407;-61
2022/12/02 06:52:34;;;;;;;27.15;11.25;;;5.70;99.90;;;;;;5068725;28;20437;-60
2022/12/02 06:55:00;;;;;;;27.70;11.60;;;6.60;1.00;;;;;;5060485;28;20897;-65
2022/12/02 06:57:30;;;;;;;26.58;11.35;;;5.60;1.00;;;;;;5067591;28;20387;-61
2022/12/02 06:59:56;;;;;;;27.42;10.30;;;5.70;1.00;;;;;;5058432;28;20397;-61
2022/12/02 07:02:25;;;;;;;30.07;12.10;;;5.80;1.00;;;;;;5060519;28;20388;-61
2022/12/02 07:04:51;;;;;;;38.55;12.35;;;5.60;1.00;;;;;;5057407;28;20502;-61
2022/12/02 07:07:22;;;;;;;29.05;11.40;;;6.00;1.00;;;;;;5067370;28;20493;-59
2022/12/02 07:09:54;;;;;;;27.75;11.90;;;5.50;27.00;;;;;;5058937;28;20400;-59
2022/12/02 07:12:29;;;;;;;28.10;11.85;;;6.40;66.80;;;;;;5055115;28;20378;-59
2022/12/02 07:14:56;;;;;;;26.75;11.68;;;5.60;98.20;;;;;;5062603;28;20393;-59
2022/12/02 07:17:34;;;;;;;29.00;11.48;;;5.60;99.90;;;;;;5054191;28;20738;-59
2022/12/02 07:20:05;;;;;;;28.58;12.73;;;5.60;99.90;;;;;;5057928;28;20421;-59
2022/12/02 07:22:49;;;;;;;30.92;12.45;;;5.60;54.90;;;;;;5061233;28;20439;-60
2022/12/02 07:25:25;;;;;;;28.65;12.30;;;5.90;99.90;;;;;;5040084;28;20393;-64
2022/12/02 07:27:51;;;;;;;26.52;11.30;;;5.50;99.90;;;;;;5064531;28;20458;-60
2022/12/02 07:30:24;;;;;;;30.17;13.57;;;5.50;99.90;;;;;;5056442;28;20417;-59
2022/12/02 07:32:50;;;;;;;31.55;13.32;;;5.50;99.90;;;;;;5065621;28;20434;-60
2022/12/02 07:35:16;;;;;;;38.78;15.23;;;5.60;99.90;;;;;;5053669;28;20445;-59
2022/12/02 07:37:42;;;;;;;33.85;14.05;;;6.30;99.90;;;;;;5061784;28;20391;-59
2022/12/02 07:40:08;;;;;;;34.63;14.60;;;5.70;99.90;;;;;;5054557;28;20471;-61
2022/12/02 07:42:34;;;;;;;37.50;14.95;;;5.80;1.00;;;;;;5061878;28;20460;-59
2022/12/02 07:44:59;;;;;;;32.25;13.50;;;5.70;1.00;;;;;;5058975;28;20409;-59
2022/12/02 07:47:25;;;;;;;29.40;12.80;;;5.70;13.50;;;;;;5059776;28;20396;-60
2022/12/02 07:49:50;;;;;;;28.20;12.70;;;7.10;1.00;;;;;;5058807;28;20386;-59
2022/12/02 07:52:16;;;;;;;26.10;10.77;;;5.50;99.90;;;;;;5046027;28;20401;-60
2022/12/02 07:54:42;;;;;;;32.15;12.60;;;5.60;99.90;;;;;;5055918;28;20399;-60
2022/12/02 07:57:07;;;;;;;33.90;14.00;;;5.80;67.80;;;;;;5057043;28;20392;-59
2022/12/02 07:59:33;;;;;;;29.80;12.98;;;5.40;99.90;;;;;;5050683;28;20401;-62
2022/12/02 08:01:58;;;;;;;30.10;12.70;;;6.00;99.90;;;;;;5055029;28;20433;-60
2022/12/02 08:04:24;;;;;;;31.42;12.38;;;5.80;99.90;;;;;;5064276;28;20486;-61
2022/12/02 08:06:50;;;;;;;30.00;12.10;;;6.80;32.50;;;;;;5055160;28;20393;-60
2022/12/02 08:09:15;;;;;;;28.25;12.63;;;5.60;49.60;;;;;;5068312;28;20948;-64
2022/12/02 08:11:41;;;;;;;33.90;12.20;;;5.50;99.90;;;;;;5070754;28;20388;-59
2022/12/02 08:14:06;;;;;;;32.65;12.82;;;5.50;99.90;;;;;;5068234;28;20396;-60
2022/12/02 08:16:32;;;;;;;26.57;12.47;;;7.10;99.90;;;;;;5062571;28;20395;-60
2022/12/02 08:18:59;;;;;;;30.00;12.63;;;5.50;99.90;;;;;;5065000;28;20403;-61
2022/12/02 08:21:25;;;;;;;31.20;13.13;;;5.90;99.90;;;;;;5065364;28;20410;-60
2022/12/02 08:23:50;;;;;;;36.40;13.27;;;5.40;99.90;;;;;;5056062;28;20386;-60
2022/12/02 08:26:16;;;;;;;37.55;16.35;;;5.50;99.90;;;;;;5049603;28;20805;-62
2022/12/02 08:28:42;;;;;;;33.40;14.77;;;5.60;99.90;;;;;;5064479;28;20444;-65
2022/12/02 08:31:07;;;;;;;35.95;13.75;;;5.60;99.90;;;;;;5057932;28;21087;-63
2022/12/02 08:33:33;;;;;;;31.65;13.05;;;5.50;99.90;;;;;;5059157;28;20411;-61
2022/12/02 08:35:59;;;;;;;33.50;13.00;;;5.50;99.90;;;;;;5068638;28;20404;-61
2022/12/02 08:38:24;;;;;;;30.83;11.90;;;5.60;99.90;;;;;;5063948;28;20487;-64
2022/12/02 08:40:50;;;;;;;37.77;14.20;;;5.50;99.90;;;;;;5065205;28;20880;-60
2022/12/02 08:43:15;;;;;;;42.00;19.25;;;5.50;99.90;;;;;;5065504;28;20461;-64
2022/12/02 08:45:41;;;;;;;36.17;16.47;;;6.00;99.90;;;;;;5068057;28;20395;-60
2022/12/02 08:48:07;;;;;;;36.97;13.50;;;5.40;99.90;;;;;;5058397;28;20517;-64
2022/12/02 08:50:33;;;;;;;25.33;11.10;;;6.50;1.00;;;;;;5061381;28;20391;-60
2022/12/02 08:52:58;;;;;;;28.67;12.90;;;5.40;99.90;;;;;;5060727;28;20803;-61
2022/12/02 08:55:25;;;;;;;27.02;12.50;;;5.70;99.90;;;;;;5056217;28;20882;-60
2022/12/02 08:57:50;;;;;;;25.48;10.90;;;5.40;99.90;;;;;;5065418;28;20395;-60
2022/12/02 09:00:16;;;;;;;26.90;11.00;;;5.50;1.00;;;;;;5060283;28;20411;-64
2022/12/02 09:02:42;;;;;;;25.87;10.53;;;5.60;99.90;;;;;;5067472;28;20911;-59
2022/12/02 09:05:07;;;;;;;27.00;10.60;;;5.60;99.90;;;;;;5067391;28;20399;-61
2022/12/02 09:07:33;;;;;;;26.27;10.80;;;5.60;99.90;;;;;;5068419;28;20844;-60
2022/12/02 09:09:58;;;;;;;30.15;11.80;;;5.50;99.90;;;;;;5071883;28;20482;-59
2022/12/02 09:12:26;;;;;;;33.43;12.80;;;5.80;99.90;;;;;;5070907;28;20387;-63
2022/12/02 09:14:52;;;;;;;29.20;12.23;;;5.80;99.90;;;;;;5071716;28;20425;-59
2022/12/02 09:17:18;;;;;;;28.15;13.00;;;5.80;99.90;;;;;;5070936;28;20441;-60
2022/12/02 09:19:43;;;;;;;24.90;10.90;;;5.80;99.90;;;;;;5071104;28;20467;-59
2022/12/02 09:22:09;;;;;;;28.40;11.73;;;5.70;99.90;;;;;;5070005;28;20418;-59
2022/12/02 09:24:35;;;;;;;27.92;11.70;;;5.60;99.90;;;;;;5047813;28;20377;-60
2022/12/02 09:27:00;;;;;;;26.83;11.80;;;5.50;99.90;;;;;;5068100;28;20396;-59
2022/12/02 09:29:26;;;;;;;24.70;10.70;;;5.40;99.90;;;;;;5070955;28;20779;-59
2022/12/02 09:31:51;;;;;;;29.63;11.60;;;5.40;99.90;;;;;;5071172;28;20418;-59
2022/12/02 09:34:18;;;;;;;28.50;11.33;;;5.40;99.90;;;;;;5068585;28;21791;-59
2022/12/02 09:36:43;;;;;;;24.85;10.57;;;5.50;99.90;;;;;;5065186;28;20465;-59
2022/12/02 09:39:09;;;;;;;26.90;11.00;;;5.50;99.90;;;;;;5070829;28;20814;-58
2022/12/02 09:41:36;;;;;;;26.42;11.25;;;5.40;99.90;;;;;;5067477;28;20678;-59
2022/12/02 09:44:03;;;;;;;23.05;10.95;;;5.30;1.00;;;;;;5069445;28;20376;-60
2022/12/02 09:46:28;;;;;;;23.97;10.70;;;5.40;1.00;;;;;;5070344;28;20458;-59
2022/12/02 09:48:55;;;;;;;23.27;9.93;;;5.50;1.00;;;;;;5070069;28;20900;-59
2022/12/02 09:51:20;;;;;;;25.70;10.75;;;6.50;99.90;;;;;;5069037;28;20784;-59
2022/12/02 09:53:46;;;;;;;28.08;10.70;;;5.50;99.90;;;;;;5070466;28;20391;-60
2022/12/02 09:56:17;;;;;;;22.83;10.13;;;5.60;99.90;;;;;;5060708;28;20407;-60
2022/12/02 09:58:46;;;;;;;24.67;10.27;;;5.60;99.90;;;;;;5065487;28;20419;-60
2022/12/02 10:01:12;;;;;;;23.92;9.60;;;5.60;99.90;;;;;;5070801;28;20426;-60
2022/12/02 10:03:39;;;;;;;21.40;9.73;;;5.60;99.90;;;;;;5070157;28;20392;-59
2022/12/02 10:06:16;;;;;;;22.08;8.30;;;5.50;99.90;;;;;;5071241;28;20875;-60
2022/12/02 10:08:41;;;;;;;19.23;8.40;;;6.40;99.90;;;;;;5070116;28;20746;-60
2022/12/02 10:11:07;;;;;;;24.50;9.53;;;5.50;99.90;;;;;;5070939;28;20477;-60
2022/12/02 10:13:38;;;;;;;19.75;8.80;;;5.50;99.90;;;;;;5069820;28;20892;-60
2022/12/02 10:16:12;;;;;;;20.58;8.52;;;5.60;99.90;;;;;;5070510;28;20495;-61
2022/12/02 10:18:39;;;;;;;18.42;8.02;;;5.60;99.90;;;;;;5069200;28;20885;-60
2022/12/02 10:21:05;;;;;;;17.00;6.90;;;5.50;99.90;;;;;;5070867;28;20386;-60
2022/12/02 10:23:31;;;;;;;15.50;6.37;;;5.30;99.90;;;;;;5069552;28;20384;-60
2022/12/02 10:26:06;;;;;;;18.40;7.43;;;5.70;99.90;;;;;;5070366;28;20380;-59
2022/12/02 10:28:33;;;;;;;16.30;8.27;;;5.30;99.90;;;;;;5069313;28;20394;-59
2022/12/02 10:31:03;;;;;;;17.80;7.22;;;5.40;99.90;;;;;;5070159;28;20548;-60
2022/12/02 10:33:34;;;;;;;18.35;7.97;;;5.50;99.90;;;;;;5067270;28;20417;-60
2022/12/02 10:36:00;;;;;;;17.25;7.78;;;5.50;99.90;;;;;;5063823;28;20399;-59
2022/12/02 10:38:32;;;;;;;14.70;6.70;;;6.60;99.90;;;;;;5068354;28;20423;-60
2022/12/02 10:41:11;;;;;;;19.17;6.97;;;5.50;99.90;;;;;;5050154;28;20398;-61
2022/12/02 10:43:37;;;;;;;17.25;7.90;;;5.40;99.90;;;;;;5049389;28;20495;-59
2022/12/02 10:46:02;;;;;;;14.43;6.47;;;7.30;99.90;;;;;;5068537;28;20841;-59
2022/12/02 10:48:28;;;;;;;14.00;5.60;;;5.50;99.90;;;;;;5061642;28;20486;-60
2022/12/02 10:50:54;;;;;;;15.32;6.10;;;5.50;99.90;;;;;;5070547;28;20380;-60
2022/12/02 10:53:25;;;;;;;15.45;5.90;;;5.40;99.90;;;;;;5069112;28;20428;-60
2022/12/02 10:55:51;;;;;;;13.63;6.27;;;5.40;99.90;;;;;;5069517;28;20471;-59
2022/12/02 10:58:25;;;;;;;16.58;6.93;;;5.30;99.90;;;;;;5069219;28;20510;-64
2022/12/02 11:00:51;;;;;;;15.00;7.00;;;5.40;99.90;;;;;;5069769;28;20383;-59
2022/12/02 11:03:19;;;;;;;15.37;6.70;;;5.50;99.90;;;;;;5069319;28;20449;-65
2022/12/02 11:05:45;;;;;;;14.82;6.30;;;5.40;99.90;;;;;;5069981;28;20386;-60
2022/12/02 11:08:21;;;;;;;16.23;6.40;;;5.30;99.90;;;;;;5069768;28;20824;-61
2022/12/02 11:11:08;;;;;;;15.68;6.95;;;5.40;99.90;;;;;;5069119;28;20466;-59
2022/12/02 11:13:50;;;;;;;18.17;7.90;;;5.30;99.90;;;;;;5054224;28;21187;-60
2022/12/02 11:16:28;;;;;;;19.33;8.70;;;5.40;99.90;;;;;;5069454;28;20467;-65
2022/12/02 11:19:02;;;;;;;18.98;6.85;;;5.50;99.90;;;;;;5069460;28;20443;-59
2022/12/02 11:21:28;;;;;;;14.13;6.18;;;5.40;99.90;;;;;;5069029;28;20392;-61
2022/12/02 11:24:22;;;;;;;13.27;5.83;;;5.40;99.90;;;;;;5050207;28;20916;-59
2022/12/02 11:27:03;;;;;;;16.10;6.18;;;5.20;99.90;;;;;;5047208;28;20767;-59
2022/12/02 11:29:34;;;;;;;14.23;6.22;;;5.30;99.90;;;;;;5048778;28;20394;-59
2022/12/02 11:32:18;;;;;;;16.38;7.03;;;7.20;99.90;;;;;;5049779;28;20854;-60
2022/12/02 11:34:47;;;;;;;12.60;5.22;;;5.40;99.90;;;;;;5060262;28;20442;-60
2022/12/02 11:37:25;;;;;;;15.00;6.37;;;5.20;99.90;;;;;;5068637;28;20426;-60
2022/12/02 11:40:04;;;;;;;15.18;6.40;;;5.30;99.90;;;;;;5065029;28;20465;-60
2022/12/02 11:42:32;;;;;;;14.35;6.35;;;5.40;99.90;;;;;;5049998;28;20959;-60
2022/12/02 11:45:15;;;;;;;15.65;6.63;;;6.90;99.90;;;;;;5069309;28;20394;-61
2022/12/02 11:47:45;;;;;;;14.80;6.38;;;5.40;99.90;;;;;;5064757;28;20398;-62
2022/12/02 11:50:13;;;;;;;16.10;6.30;;;5.40;99.90;;;;;;5069225;28;20410;-60
2022/12/02 11:52:51;;;;;;;13.70;5.95;;;6.00;99.90;;;;;;5068696;28;20388;-59
2022/12/02 11:55:20;;;;;;;14.32;6.25;;;5.30;99.90;;;;;;5068696;28;20884;-65
2022/12/02 11:57:54;;;;;;;16.85;6.88;;;5.80;99.90;;;;;;5068385;28;20437;-60
2022/12/02 12:00:29;;;;;;;15.82;6.82;;;5.20;99.90;;;;;;5068004;28;20408;-61
2022/12/02 12:03:12;;;;;;;15.50;6.88;;;5.20;99.90;;;;;;5066701;28;20400;-62
2022/12/02 12:06:02;;;;;;;16.88;7.65;;;5.30;99.90;;;;;;5068553;28;20891;-60
2022/12/02 12:08:28;;;;;;;14.07;6.57;;;6.50;99.90;;;;;;5047508;28;21010;-61
2022/12/02 12:11:31;;;;;;;15.70;7.20;;;5.70;99.90;;;;;;5068718;28;20395;-59
2022/12/02 12:14:02;;;;;;;15.05;6.60;;;5.30;99.90;;;;;;4969863;28;20905;-60
2022/12/02 12:16:32;;;;;;;13.40;6.20;;;5.30;99.90;;;;;;5047628;28;20431;-60
2022/12/02 12:19:00;;;;;;;15.43;6.30;;;6.10;99.90;;;;;;5068420;28;20416;-60
2022/12/02 12:21:32;;;;;;;13.60;6.50;;;5.40;99.90;;;;;;5071653;28;20384;-61
2022/12/02 12:24:22;;;;;;;16.25;7.20;;;5.90;99.90;;;;;;5068860;28;20414;-61
2022/12/02 12:27:03;;;;;;;12.90;6.10;;;7.10;99.90;;;;;;5059631;28;20402;-60
2022/12/02 12:29:31;;;;;;;14.25;6.53;;;5.60;99.90;;;;;;5068981;28;20454;-61
2022/12/02 12:31:57;;;;;;;15.07;7.35;;;5.60;99.90;;;;;;5071875;28;20388;-61
2022/12/02 12:34:23;;;;;;;17.02;6.38;;;6.20;35.10;;;;;;5070398;28;20591;-61
2022/12/02 12:36:49;;;;;;;14.20;6.63;;;5.60;1.00;;;;;;5061532;28;20486;-61
2022/12/02 12:39:15;;;;;;;14.47;6.03;;;5.40;99.90;;;;;;5071403;28;20404;-61
2022/12/02 12:41:41;;;;;;;13.73;6.30;;;5.40;99.90;;;;;;5070744;28;20387;-61
2022/12/02 12:44:07;;;;;;;16.48;6.85;;;6.50;99.90;;;;;;5070939;28;20398;-61
2022/12/02 12:46:32;;;;;;;15.37;6.53;;;5.50;99.90;;;;;;5070492;28;20533;-60
2022/12/02 12:48:58;;;;;;;13.80;6.97;;;6.70;99.90;;;;;;5071724;28;20918;-61
2022/12/02 12:51:25;;;;;;;17.00;7.05;;;5.20;99.90;;;;;;5070296;28;20376;-62
2022/12/02 12:53:51;;;;;;;14.90;7.00;;;5.20;99.90;;;;;;5071536;28;21754;-62